Terminal Aerodrome Forecast
Issued by NWS Corpus Christi, TX

Home | Current Version | Previous Version | Text Only | Print | Product List | Glossary On
Versions: 1 2 3 4 5 6 7 8 9 10 11 12 13 14 15 16 17 18 19 20 21
000
FTUS44 KCRP 161700
TAFCRP
TAF
KCRP 161740Z 1618/1718 16012G18KT P6SM VCSH SCT025 BKN080
      TEMPO 1618/1621 VRB15G25KT 3SM TSRA BKN020CB
     FM162100 09015G20KT P6SM VCTS BKN035CB
     FM170000 09012KT P6SM SCT040
     FM170600 10006KT P6SM BKN015 OVC100
     FM171000 12007KT P6SM VCSH OVC015
     FM171600 14010KT P6SM VCTS BKN025CB=

USA.gov is the U.S. government's official web portal to all federal, state and local government web resources and services.